Derby, Iowa
Current Conditions -  °F | °C
As of 12:15 PM on Thursday 27 Nov 2014 (Local Time) from KCNC Reporting Station
Clear Clear  
Wind Chill:   Ceiling: Unl
Heat Index: 16°   Visibility: 10mi
Dew Point:   Wind: 7mph
Humidity: 58%   Direction: 310°NW
Pressure: 30.5"   Gusts: NA
Location:  40.93°N, 93.46°W
Report Text: KCNC 271815Z AUTO 31006KT 10SM CLR M09/M16 A3050 RMK AO2
Loading
Personal Weather Stations






























Interactive Weather Map New forecast layout! Learn more

10-Day Weather Forecast

Advertisements
Track Severe Weather on mobile